Time;durP1;ratioP1;P1;durP2;ratioP2;P2;SDS_P1;SDS_P2;PMS_P1;PMS_P2;Temp;Humidity;BMP_temperature;BMP_pressure;BME280_temperature;BME280_humidity;BME280_pressure;Samples;Min_cycle;Max_cycle;Signal;HPM_P1;HPM_P2
2024/03/07 00:00:17;;;;;;;64.82;44.38;;;10.00;99.90;;;10.35;86.31;102459.22;4956114;28;20150;-62
2024/03/07 00:02:48;;;;;;;69.45;43.75;;;10.10;99.90;;;10.43;86.03;102456.72;4956041;28;20063;-62
2024/03/07 00:05:19;;;;;;;65.55;42.67;;;10.20;99.90;;;10.46;85.75;102457.69;4955984;28;20118;-62
2024/03/07 00:07:49;;;;;;;70.40;44.40;;;10.20;99.90;;;10.46;85.47;102459.44;4956180;28;20094;-62
2024/03/07 00:10:18;;;;;;;67.10;43.60;;;10.20;99.90;;;10.41;85.42;102463.75;4955827;28;20043;-62
2024/03/07 00:12:47;;;;;;;65.03;43.45;;;10.20;99.90;;;10.34;85.42;102467.09;4955891;28;20598;-61
2024/03/07 00:15:17;;;;;;;67.60;44.33;;;10.10;99.90;;;10.40;85.53;102473.41;4955729;28;20047;-63
2024/03/07 00:17:46;;;;;;;62.80;42.83;;;10.10;99.90;;;10.37;85.53;102459.25;4955800;28;20114;-61
2024/03/07 00:20:19;;;;;;;68.05;44.60;;;10.10;99.90;;;10.45;85.41;102470.88;4955667;28;20051;-61
2024/03/07 00:22:51;;;;;;;67.72;45.00;;;10.20;99.90;;;10.44;84.95;102469.09;4955540;28;20051;-61
2024/03/07 00:25:22;;;;;;;67.47;43.10;;;10.20;99.90;;;10.44;85.11;102477.91;4954136;29;20083;-61
2024/03/07 00:27:52;;;;;;;63.60;42.28;;;10.20;99.90;;;10.32;84.84;102453.84;4955409;28;20050;-62
2024/03/07 00:30:21;;;;;;;63.90;40.80;;;10.10;99.90;;;10.42;85.02;102468.16;4955376;29;20058;-62
2024/03/07 00:32:50;;;;;;;59.75;39.53;;;10.20;99.90;;;10.41;84.88;102474.31;4970057;28;20058;-62
2024/03/07 00:35:20;;;;;;;62.25;40.42;;;10.20;99.90;;;10.36;84.85;102468.91;4955273;28;20097;-63
2024/03/07 00:37:50;;;;;;;62.30;39.33;;;10.10;99.90;;;10.31;84.77;102469.69;4955336;28;20062;-62
2024/03/07 00:40:19;;;;;;;62.05;41.30;;;10.10;99.90;;;10.30;84.96;102462.63;4955303;28;20436;-61
2024/03/07 00:42:47;;;;;;;61.38;40.75;;;10.10;99.90;;;10.27;85.04;102459.88;4955315;28;20051;-61
2024/03/07 00:45:16;;;;;;;66.25;41.60;;;10.00;99.90;;;10.24;85.11;102467.75;4955476;28;20404;-61
2024/03/07 00:47:44;;;;;;;66.45;42.72;;;10.00;99.90;;;10.24;85.17;102462.47;4955091;28;20122;-62
2024/03/07 00:50:13;;;;;;;62.92;40.80;;;9.90;99.90;;;10.25;85.21;102466.88;4955429;28;20055;-62
2024/03/07 00:52:45;;;;;;;67.70;43.58;;;10.00;99.90;;;10.22;85.08;102466.84;4955201;28;20059;-61
2024/03/07 00:55:15;;;;;;;67.13;43.45;;;9.90;99.90;;;10.15;85.20;102462.25;4955117;28;20073;-61
2024/03/07 00:57:46;;;;;;;65.63;42.15;;;9.90;99.90;;;10.13;85.48;102450.75;4954930;28;20050;-61
2024/03/07 01:00:19;;;;;;;69.50;46.28;;;9.90;99.90;;;10.15;85.30;102462.25;4954922;28;20118;-61
2024/03/07 01:02:48;;;;;;;69.03;47.08;;;9.90;99.90;;;10.15;85.63;102456.97;4954958;28;20055;-62
2024/03/07 01:05:17;;;;;;;73.53;47.40;;;9.90;99.90;;;10.04;85.59;102444.34;4954765;28;20539;-62
2024/03/07 01:07:47;;;;;;;75.90;47.93;;;9.90;99.90;;;10.10;85.33;102453.34;4954827;28;20055;-61
2024/03/07 01:10:17;;;;;;;72.63;48.03;;;9.80;99.90;;;10.10;85.48;102443.66;4954771;29;20290;-61
2024/03/07 01:12:45;;;;;;;75.68;49.10;;;9.80;99.90;;;10.04;85.70;102446.13;4954974;28;20050;-61
2024/03/07 01:15:14;;;;;;;68.88;46.03;;;9.80;99.90;;;10.03;86.10;102446.97;4954949;28;20122;-62
2024/03/07 01:17:44;;;;;;;69.28;47.78;;;9.80;99.90;;;10.06;85.93;102444.41;4954633;28;20552;-61
2024/03/07 01:20:13;;;;;;;73.10;47.53;;;9.80;99.90;;;10.08;85.74;102450.63;4954621;28;20403;-62
2024/03/07 01:22:42;;;;;;;73.93;46.90;;;9.80;99.90;;;10.11;85.47;102447.16;4954508;28;20047;-61
2024/03/07 01:25:12;;;;;;;70.10;45.33;;;9.80;99.90;;;10.07;85.49;102448.81;4954541;28;20518;-61
2024/03/07 01:27:42;;;;;;;;;;;9.80;99.90;;;10.09;85.58;102451.50;4955011;28;20346;-61
2024/03/07 01:30:12;;;;;;;72.18;46.88;;;9.80;99.90;;;10.02;85.98;102439.91;4954584;28;19922;-62
2024/03/07 01:32:41;;;;;;;76.63;46.42;;;9.80;99.90;;;9.94;86.04;102446.75;4954295;28;20054;-61
2024/03/07 01:35:10;;;;;;;77.40;48.67;;;9.70;99.90;;;9.96;85.94;102442.41;4954121;28;20050;-63
2024/03/07 01:37:38;;;;;;;72.72;48.60;;;9.70;99.90;;;9.80;86.27;102430.56;4968766;28;20409;-62
2024/03/07 01:40:09;;;;;;;75.20;47.83;;;9.60;99.90;;;9.83;86.79;102435.06;4954195;28;20043;-61
2024/03/07 01:42:37;;;;;;;75.82;49.25;;;9.50;99.90;;;9.80;86.35;102432.31;4954102;28;20043;-61
2024/03/07 01:45:09;;;;;;;75.22;48.33;;;9.60;99.90;;;9.81;86.96;102440.28;4953952;28;20051;-62
2024/03/07 01:47:38;;;;;;;77.35;48.55;;;9.60;99.90;;;9.80;86.90;102437.59;4952184;29;20484;-61
2024/03/07 01:50:09;;;;;;;76.50;49.42;;;9.50;99.90;;;9.74;87.13;102437.44;4954037;28;20134;-64
2024/03/07 01:52:40;;;;;;;79.15;50.72;;;9.50;99.90;;;9.71;87.39;102429.47;4953755;28;20525;-62
2024/03/07 01:55:10;;;;;;;76.60;48.00;;;9.50;99.90;;;9.74;87.25;102424.25;4953951;28;20389;-61
2024/03/07 01:57:42;;;;;;;73.40;48.28;;;9.50;99.90;;;9.77;87.41;102433.16;4968661;28;20382;-62
2024/03/07 02:00:13;;;;;;;73.38;48.83;;;9.50;99.90;;;9.73;87.38;102431.31;4953852;28;20051;-61
2024/03/07 02:02:42;;;;;;;73.82;48.42;;;9.50;99.90;;;9.69;87.09;102425.91;4953814;28;20102;-61
2024/03/07 02:05:11;;;;;;;75.22;48.92;;;9.40;99.90;;;9.63;87.52;102424.00;4953813;28;20043;-62
2024/03/07 02:07:39;;;;;;;75.22;48.10;;;9.40;99.90;;;9.67;87.38;102415.28;4953738;28;20047;-62
2024/03/07 02:10:10;;;;;;;73.78;45.97;;;9.40;99.90;;;9.67;87.13;102414.41;4953669;28;20503;-62
2024/03/07 02:12:38;;;;;;;;;;;9.40;99.90;;;9.64;87.43;102409.91;4954107;28;20051;-62
2024/03/07 02:15:08;;;;;;;74.00;47.25;;;9.50;99.90;;;9.58;87.58;102415.06;4954134;28;19977;-61
2024/03/07 02:17:38;;;;;;;74.97;47.53;;;9.40;99.90;;;9.57;87.95;102415.03;4953546;28;20036;-61
2024/03/07 02:20:10;;;;;;;76.40;49.42;;;9.30;99.90;;;9.56;87.92;102415.91;4953709;28;20047;-61
2024/03/07 02:22:41;;;;;;;74.13;48.50;;;9.30;99.90;;;9.48;87.83;102413.06;4953593;28;20182;-63
2024/03/07 02:25:11;;;;;;;70.68;46.58;;;9.30;99.90;;;9.51;87.97;102414.88;4953886;28;20412;-64
2024/03/07 02:27:40;;;;;;;75.13;47.83;;;9.30;99.90;;;9.53;88.04;102400.84;4953729;28;20047;-62
2024/03/07 02:30:09;;;;;;;72.90;47.67;;;9.20;99.90;;;9.42;88.06;102398.81;4953527;28;20118;-61
2024/03/07 02:32:38;;;;;;;74.43;47.30;;;9.20;99.90;;;9.36;88.29;102398.66;4953741;28;20097;-61
2024/03/07 02:35:08;;;;;;;71.90;47.42;;;9.10;99.90;;;9.37;88.73;102396.03;4953406;28;20086;-61
2024/03/07 02:37:36;;;;;;;75.38;48.65;;;9.10;99.90;;;9.37;88.81;102395.16;4953625;28;20035;-62
2024/03/07 02:40:11;;;;;;;76.93;48.03;;;9.10;99.90;;;9.43;88.42;102390.91;4953421;28;20109;-61
2024/03/07 02:42:39;;;;;;;71.15;46.83;;;9.20;99.90;;;9.28;88.64;102382.63;4953444;28;20134;-61
2024/03/07 02:45:10;;;;;;;75.93;47.47;;;9.10;99.90;;;9.19;89.08;102377.13;4968149;28;20051;-61
2024/03/07 02:47:38;;;;;;;73.75;47.90;;;9.00;99.90;;;9.12;89.61;102384.84;4953308;28;20381;-63
2024/03/07 02:50:08;;;;;;;76.47;47.03;;;8.90;99.90;;;9.10;89.75;102377.75;4953317;28;20063;-63
2024/03/07 02:52:36;;;;;;;72.47;47.08;;;8.90;99.90;;;9.15;89.93;102375.25;4953524;28;20056;-61
2024/03/07 02:55:10;;;;;;;78.60;49.08;;;8.90;99.90;;;9.07;90.04;102380.34;4953316;28;20047;-62
2024/03/07 02:57:39;;;;;;;78.63;47.75;;;8.90;99.90;;;9.09;90.24;102377.72;4953189;28;20043;-62
2024/03/07 03:00:19;;;;;;;76.22;47.92;;;8.80;99.90;;;8.92;90.23;102355.28;4970464;28;20509;-61
2024/03/07 03:02:48;;;;;;;;;;;8.80;99.90;;;8.96;90.58;102370.34;4957174;28;20062;-61
2024/03/07 03:05:18;;;;;;;81.50;47.10;;;8.80;99.90;;;8.92;90.97;102371.13;4956686;28;19927;-61
2024/03/07 03:07:53;;;;;;;81.85;48.90;;;8.70;99.90;;;8.90;90.94;102378.97;4956764;28;20393;-62
2024/03/07 03:10:28;;;;;;;78.93;49.53;;;8.70;99.90;;;8.64;91.04;102327.28;4956662;28;20050;-61
2024/03/07 03:12:58;;;;;;;77.68;48.03;;;8.70;99.90;;;8.88;91.31;102369.25;4956675;28;20073;-61
2024/03/07 03:15:28;;;;;;;;;;;8.60;99.90;;;8.92;91.49;102371.13;4957003;28;20066;-61
2024/03/07 03:17:59;;;;;;;76.00;48.53;;;8.70;99.90;;;8.80;91.47;102366.41;4956625;29;20296;-61
2024/03/07 03:20:33;;;;;;;83.03;49.05;;;8.60;99.90;;;8.84;91.52;102367.38;4956691;28;20192;-61
2024/03/07 03:23:03;;;;;;;78.15;48.83;;;8.60;99.90;;;8.83;91.83;102370.84;4956665;28;20053;-61
2024/03/07 03:25:37;;;;;;;75.65;47.65;;;8.60;99.90;;;8.80;91.91;102376.97;4956448;29;20043;-61
2024/03/07 03:28:09;;;;;;;78.72;48.85;;;8.60;99.90;;;8.80;91.76;102370.78;4956493;28;20065;-61
2024/03/07 03:30:38;;;;;;;81.57;50.08;;;8.60;99.90;;;8.77;92.12;102368.06;4956442;28;20457;-61
2024/03/07 03:33:07;;;;;;;80.43;48.42;;;8.60;99.90;;;8.75;91.71;102369.78;4971354;28;20094;-61
2024/03/07 03:35:37;;;;;;;79.10;48.80;;;8.60;99.90;;;8.73;91.93;102368.84;4956430;28;20163;-62
2024/03/07 03:38:06;;;;;;;81.65;47.85;;;8.50;99.90;;;8.76;91.61;102361.91;4956351;28;20075;-61
2024/03/07 03:40:37;;;;;;;76.97;48.38;;;8.60;99.90;;;8.64;92.09;102358.03;4956479;28;20089;-61
2024/03/07 03:43:06;;;;;;;80.05;49.35;;;8.50;99.90;;;8.55;92.31;102363.06;4956680;28;20055;-61
2024/03/07 03:45:35;;;;;;;80.22;49.00;;;8.30;99.90;;;8.59;92.44;102357.94;4956260;28;20047;-61
2024/03/07 03:48:04;;;;;;;79.05;50.45;;;8.40;99.90;;;8.62;92.20;102357.09;4956151;28;20050;-62
2024/03/07 03:50:33;;;;;;;81.15;49.22;;;8.40;99.90;;;8.55;93.05;102361.34;4956118;28;20434;-62
2024/03/07 03:53:03;;;;;;;83.50;50.15;;;8.30;99.90;;;8.59;92.46;102357.03;4955872;28;20086;-61
2024/03/07 03:55:33;;;;;;;85.28;51.15;;;8.40;99.90;;;8.53;92.47;102355.13;4956004;28;20047;-61
2024/03/07 03:58:05;;;;;;;79.65;49.95;;;8.30;99.90;;;8.56;92.41;102360.47;4955788;28;20039;-61
2024/03/07 04:00:33;;;;;;;85.93;52.33;;;8.30;99.90;;;8.52;92.51;102357.69;4955869;28;20094;-63
2024/03/07 04:03:03;;;;;;;82.07;51.45;;;8.30;99.90;;;8.53;92.60;102354.22;4955871;28;20047;-61
2024/03/07 04:05:32;;;;;;;85.80;51.45;;;8.30;99.90;;;8.53;92.56;102346.31;4955829;28;20385;-61
2024/03/07 04:08:01;;;;;;;82.72;51.40;;;8.30;99.90;;;8.48;92.79;102354.06;4955657;28;20082;-61
2024/03/07 04:10:29;;;;;;;85.18;51.50;;;8.30;99.90;;;8.43;92.78;102344.25;4955074;28;20146;-61
2024/03/07 04:12:58;;;;;;;87.22;52.83;;;8.20;99.90;;;8.39;93.46;102345.03;4955821;28;20444;-61
2024/03/07 04:15:30;;;;;;;87.47;51.55;;;8.20;99.90;;;8.37;92.98;102346.72;4955482;28;20113;-61
2024/03/07 04:18:04;;;;;;;87.72;51.55;;;8.20;99.90;;;8.36;92.86;102342.31;4955630;28;20134;-61
2024/03/07 04:20:32;;;;;;;86.03;53.67;;;8.10;99.90;;;8.26;93.20;102348.16;4954095;29;20055;-61
2024/03/07 04:23:02;;;;;;;83.10;52.83;;;8.10;99.90;;;8.23;93.40;102355.09;4955342;28;20058;-62
2024/03/07 04:25:31;;;;;;;88.47;52.83;;;8.00;99.90;;;8.09;93.86;102348.53;4955271;28;20061;-61
2024/03/07 04:27:59;;;;;;;82.72;51.63;;;7.90;99.90;;;8.08;94.53;102338.84;4955205;28;20146;-61
2024/03/07 04:30:29;;;;;;;85.47;52.95;;;7.90;99.90;;;8.03;94.59;102347.47;4955169;28;20043;-62
2024/03/07 04:32:58;;;;;;;86.15;52.75;;;7.80;99.90;;;8.15;94.45;102347.81;4955125;28;20044;-62
2024/03/07 04:35:27;;;;;;;87.93;51.95;;;7.90;99.90;;;8.19;94.31;102350.59;4955122;28;20138;-62
2024/03/07 04:37:56;;;;;;;91.38;52.10;;;7.90;99.90;;;8.20;94.37;102339.22;4955165;28;20400;-61
2024/03/07 04:40:24;;;;;;;85.43;52.08;;;8.00;99.90;;;8.26;93.77;102348.16;4954920;28;20060;-61
2024/03/07 04:42:52;;;;;;;86.70;51.97;;;8.00;99.90;;;8.17;93.72;102346.13;4955141;28;20058;-61
2024/03/07 04:45:21;;;;;;;89.68;51.30;;;8.00;99.90;;;8.12;93.66;102338.09;4954812;28;20082;-61
2024/03/07 04:47:51;;;;;;;87.72;52.38;;;7.90;99.90;;;8.05;94.02;102340.50;4954839;28;20527;-61
2024/03/07 04:50:20;;;;;;;86.45;51.90;;;7.90;99.90;;;8.01;93.98;102336.88;4954826;28;20054;-62
2024/03/07 04:52:48;;;;;;;89.85;54.08;;;7.90;99.90;;;8.12;94.54;102339.81;4954540;28;20051;-62
2024/03/07 04:55:19;;;;;;;88.93;52.90;;;7.90;99.90;;;8.12;93.84;102330.19;4954665;28;20062;-61
2024/03/07 04:57:47;;;;;;;91.10;52.90;;;7.90;99.90;;;8.15;94.17;102330.25;4954667;28;20035;-61
2024/03/07 05:00:19;;;;;;;86.68;51.53;;;7.90;99.90;;;8.02;94.18;102311.41;4954534;28;20046;-62
2024/03/07 05:02:51;;;;;;;86.97;53.28;;;7.90;99.90;;;8.08;93.98;102325.69;4953258;29;20043;-61
2024/03/07 05:05:22;;;;;;;89.45;52.95;;;7.90;99.90;;;8.13;93.81;102331.06;4969256;28;20063;-62
2024/03/07 05:07:52;;;;;;;83.15;51.30;;;7.90;99.90;;;8.14;94.05;102332.84;4954434;28;20051;-62
2024/03/07 05:10:21;;;;;;;86.60;53.15;;;7.90;99.90;;;8.17;93.76;102332.94;4954419;28;20436;-62
2024/03/07 05:12:50;;;;;;;84.55;50.70;;;7.90;99.90;;;8.11;94.03;102328.38;4954431;28;20062;-61
2024/03/07 05:15:19;;;;;;;84.07;51.08;;;8.00;99.90;;;8.19;93.63;102334.78;4954356;28;20047;-61
2024/03/07 05:17:47;;;;;;;82.90;50.70;;;8.00;99.90;;;8.23;93.30;102340.16;4969035;28;20089;-62
2024/03/07 05:20:17;;;;;;;86.85;49.17;;;8.00;99.90;;;8.23;93.40;102341.91;4954188;28;20051;-62
2024/03/07 05:22:50;;;;;;;87.40;52.40;;;8.00;99.90;;;8.21;92.98;102340.09;4952216;28;20064;-62
2024/03/07 05:25:19;;;;;;;85.05;50.65;;;8.00;99.90;;;8.21;93.46;102345.34;4969010;28;20043;-62
2024/03/07 05:27:50;;;;;;;85.78;51.72;;;8.00;99.90;;;8.19;93.45;102344.41;4954062;28;20047;-62
2024/03/07 05:30:18;;;;;;;;;;;8.00;99.90;;;8.05;93.38;102333.47;4954741;28;20043;-62
2024/03/07 05:32:47;;;;;;;89.90;51.20;;;8.00;99.90;;;8.17;93.56;102340.84;4954157;28;20021;-61
2024/03/07 05:35:18;;;;;;;85.00;51.60;;;7.90;99.90;;;8.23;93.48;102329.59;4954163;28;20051;-61
2024/03/07 05:37:50;;;;;;;87.65;52.85;;;8.00;99.90;;;8.23;93.85;102344.56;4954183;28;20059;-61
2024/03/07 05:40:20;;;;;;;87.43;52.88;;;8.00;99.90;;;8.25;93.38;102320.00;4954086;28;20051;-62
2024/03/07 05:42:48;;;;;;;89.50;53.38;;;8.00;99.90;;;8.17;93.48;102332.94;4954047;28;20081;-62
2024/03/07 05:45:17;;;;;;;89.53;56.17;;;8.00;99.90;;;8.16;93.76;102337.34;4953973;28;20163;-61
2024/03/07 05:47:47;;;;;;;87.85;54.42;;;7.90;99.90;;;8.14;93.98;102338.13;4953992;28;20062;-61
2024/03/07 05:50:18;;;;;;;86.43;54.10;;;8.00;99.90;;;8.08;94.01;102332.69;4954046;28;20563;-61
2024/03/07 05:52:48;;;;;;;;;;;7.90;99.90;;;8.09;94.21;102337.13;4969131;28;20059;-61
2024/03/07 05:55:18;;;;;;;94.45;55.83;;;7.80;99.90;;;7.99;94.08;102317.47;4954149;29;19922;-62
2024/03/07 05:57:48;;;;;;;97.30;56.00;;;7.90;99.90;;;8.00;94.22;102324.56;4954255;28;20039;-61
2024/03/07 06:00:26;;;;;;;94.32;55.83;;;7.80;99.90;;;7.93;94.34;102325.22;4953814;28;20046;-61
2024/03/07 06:02:57;;;;;;;89.30;54.83;;;7.70;99.90;;;7.95;94.75;102328.81;4954016;28;20047;-61
2024/03/07 06:05:27;;;;;;;91.53;55.17;;;7.80;99.90;;;8.00;94.32;102324.56;4953926;28;20315;-61
2024/03/07 06:07:56;;;;;;;94.13;56.35;;;7.80;99.90;;;8.02;94.36;102332.50;4953956;28;20133;-61
2024/03/07 06:10:25;;;;;;;86.05;54.22;;;7.80;99.90;;;8.04;94.55;102329.06;4968753;28;20103;-61
2024/03/07 06:12:54;;;;;;;91.40;55.05;;;7.80;99.90;;;8.04;94.00;102326.44;4953926;28;20118;-61
2024/03/07 06:15:25;;;;;;;91.00;55.85;;;7.80;99.90;;;8.02;93.60;102327.22;4954120;28;20126;-62
2024/03/07 06:17:53;;;;;;;87.38;53.78;;;7.90;99.90;;;7.98;93.81;102322.72;4954107;29;20515;-62
2024/03/07 06:20:24;;;;;;;89.30;54.50;;;7.80;99.90;;;7.98;93.57;102325.34;4953999;28;20456;-62
2024/03/07 06:22:57;;;;;;;84.28;52.58;;;7.80;99.90;;;7.96;93.57;102322.69;4953750;28;20062;-62
2024/03/07 06:25:36;;;;;;;91.28;52.85;;;7.80;99.90;;;7.93;93.43;102322.59;4953837;28;20051;-61
2024/03/07 06:28:10;;;;;;;87.80;52.88;;;7.70;99.90;;;7.79;93.75;102326.56;4953768;28;20063;-61
2024/03/07 06:30:41;;;;;;;86.72;50.63;;;7.60;99.90;;;7.84;93.97;102334.59;4953828;28;20066;-61
2024/03/07 06:33:10;;;;;;;87.57;52.03;;;7.60;99.90;;;7.83;93.85;102328.44;4953731;28;20051;-61
2024/03/07 06:35:41;;;;;;;86.15;53.03;;;7.70;99.90;;;7.90;93.83;102326.84;4957106;28;20057;-61
2024/03/07 06:38:11;;;;;;;86.30;53.10;;;7.70;99.90;;;7.73;93.69;102302.66;4957526;28;20053;-61
2024/03/07 06:40:42;;;;;;;84.03;51.58;;;7.70;99.90;;;7.88;94.16;102312.75;4957376;28;20543;-61
2024/03/07 06:43:11;;;;;;;88.03;52.45;;;7.70;99.90;;;7.93;93.99;102312.06;4972350;28;20408;-61
2024/03/07 06:45:41;;;;;;;87.85;52.20;;;7.70;99.90;;;7.94;93.71;102320.84;4972138;28;20055;-61
2024/03/07 06:48:10;;;;;;;90.70;53.67;;;7.70;99.90;;;7.91;93.16;102332.19;4957440;28;20059;-61
2024/03/07 06:50:39;;;;;;;90.25;52.53;;;7.80;99.90;;;7.85;93.28;102324.09;4957399;28;20051;-61
2024/03/07 06:53:09;;;;;;;89.28;52.17;;;7.70;99.90;;;7.71;93.42;102292.91;4957059;28;20051;-61
2024/03/07 06:55:38;;;;;;;91.07;53.78;;;7.70;99.90;;;7.92;93.44;102333.06;4957274;28;20441;-61
2024/03/07 06:58:07;;;;;;;93.38;53.85;;;7.70;99.90;;;8.05;93.38;102327.34;4956781;28;20047;-61
2024/03/07 07:00:36;;;;;;;82.22;49.40;;;7.80;99.90;;;8.03;93.11;102327.25;4954602;29;20054;-61
2024/03/07 07:03:06;;;;;;;;;;;7.80;99.90;;;7.99;92.43;102320.13;4957443;28;20106;-61
2024/03/07 07:05:35;;;;;;;86.45;50.75;;;7.90;99.90;;;8.12;92.41;102324.00;4971687;28;19984;-61
2024/03/07 07:08:06;;;;;;;84.75;50.83;;;7.90;99.90;;;8.07;92.39;102325.63;4955884;28;20047;-62
2024/03/07 07:10:36;;;;;;;;;;;7.90;99.90;;;8.32;92.40;102332.53;4955206;28;20114;-61
2024/03/07 07:13:05;;;;;;;84.43;51.17;;;8.10;99.90;;;8.33;91.54;102327.28;4954803;28;20132;-62
2024/03/07 07:15:36;;;;;;;85.22;50.55;;;8.20;99.90;;;8.31;91.46;102325.44;4954466;28;20413;-62
2024/03/07 07:18:07;;;;;;;88.60;51.78;;;8.20;99.90;;;8.43;90.89;102328.44;4954646;28;20496;-61
2024/03/07 07:20:35;;;;;;;;;;;8.20;99.90;;;8.57;90.27;102329.72;4954984;28;20106;-61
2024/03/07 07:23:04;;;;;;;86.15;50.90;;;8.40;99.90;;;8.59;89.94;102334.19;4954393;29;20013;-63
2024/03/07 07:25:33;;;;;;;83.07;52.17;;;8.40;99.90;;;8.56;89.33;102322.63;4954360;28;20050;-62
2024/03/07 07:28:04;;;;;;;84.88;51.13;;;8.50;99.90;;;8.80;89.49;102305.75;4953059;29;20066;-62
2024/03/07 07:30:33;;;;;;;82.60;48.30;;;8.70;99.90;;;8.88;88.07;102321.75;4954495;28;20113;-63
2024/03/07 07:33:02;;;;;;;79.80;49.60;;;8.80;99.90;;;9.09;88.57;102328.47;4954472;28;20043;-62
2024/03/07 07:35:33;;;;;;;81.35;48.88;;;8.90;99.90;;;9.46;87.69;102334.66;4954284;28;20413;-62
2024/03/07 07:38:01;;;;;;;81.30;48.63;;;9.20;99.90;;;9.64;86.45;102330.66;4954300;28;20050;-63
2024/03/07 07:40:32;;;;;;;76.70;49.03;;;9.50;99.90;;;9.37;85.79;102330.03;4954077;29;20045;-61
2024/03/07 07:43:03;;;;;;;78.07;47.80;;;9.30;99.90;;;9.70;85.98;102329.91;4954034;28;20066;-62
2024/03/07 07:45:35;;;;;;;74.18;48.30;;;9.50;99.90;;;9.93;84.97;102329.56;4953068;28;20051;-62
2024/03/07 07:48:05;;;;;;;79.47;47.85;;;9.70;99.90;;;10.11;83.86;102328.19;4954090;28;20460;-64
2024/03/07 07:50:34;;;;;;;76.65;47.67;;;9.80;99.90;;;10.22;82.60;102327.56;4954014;28;20118;-60
2024/03/07 07:53:07;;;;;;;72.50;46.50;;;10.10;99.90;;;10.22;81.71;102335.47;4953851;28;20094;-62
2024/03/07 07:55:36;;;;;;;72.10;45.58;;;10.10;99.90;;;10.32;81.60;102325.97;4954047;28;20054;-62
2024/03/07 07:58:06;;;;;;;71.22;46.03;;;10.10;99.90;;;10.69;81.05;102321.44;4953872;28;20043;-62
2024/03/07 08:00:35;;;;;;;71.18;45.10;;;10.40;99.90;;;10.88;80.15;102326.19;4953703;28;20047;-62
2024/03/07 08:03:06;;;;;;;74.55;44.90;;;10.60;99.90;;;10.94;79.38;102328.06;4953738;28;20055;-63
2024/03/07 08:05:37;;;;;;;68.30;44.70;;;10.70;99.90;;;11.32;78.64;102323.41;4953719;28;20481;-64
2024/03/07 08:08:07;;;;;;;;;;;11.00;99.90;;;10.84;76.61;102320.81;4954251;28;20047;-63
2024/03/07 08:10:37;;;;;;;69.25;43.63;;;10.90;99.90;;;11.34;78.53;102319.91;4953706;29;19930;-62
2024/03/07 08:13:10;;;;;;;68.65;43.75;;;11.10;99.90;;;11.61;76.95;102320.31;4968303;28;20516;-63
2024/03/07 08:15:39;;;;;;;65.07;44.03;;;11.40;99.90;;;11.73;75.66;102323.19;4953751;28;20501;-63
2024/03/07 08:18:08;;;;;;;68.20;43.92;;;11.60;99.90;;;11.88;74.78;102324.28;4952354;29;20082;-63
2024/03/07 08:20:39;;;;;;;;;;;11.70;99.90;;;11.63;74.30;102323.88;4953874;28;20040;-63
2024/03/07 08:23:09;;;;;;;70.90;45.03;;;11.60;99.90;;;12.11;75.13;102326.38;4953697;28;20325;-63
2024/03/07 08:25:40;;;;;;;67.65;44.22;;;11.80;99.90;;;12.25;73.47;102315.91;4953427;28;20685;-61
2024/03/07 08:28:10;;;;;;;67.05;43.75;;;12.10;99.90;;;12.19;73.39;102322.06;4953489;29;20061;-62
2024/03/07 08:30:39;;;;;;;65.50;43.83;;;12.00;99.90;;;12.46;72.81;102317.06;4968412;28;20425;-62
2024/03/07 08:33:08;;;;;;;67.05;41.58;;;12.20;99.90;;;12.20;70.71;102342.38;4953511;28;20138;-61
2024/03/07 08:35:36;;;;;;;67.82;44.42;;;12.20;99.90;;;11.28;74.89;102309.22;4953296;28;20054;-62
2024/03/07 08:38:05;;;;;;;65.38;42.38;;;11.20;99.90;;;11.35;75.15;102315.50;4952009;29;20690;-62
2024/03/07 08:40:33;;;;;;;67.60;42.30;;;11.20;99.90;;;10.87;75.60;102302.34;4968085;28;20040;-61
2024/03/07 08:43:06;;;;;;;59.78;42.58;;;10.90;99.90;;;11.17;75.85;102320.53;4953299;28;20578;-61
2024/03/07 08:45:36;;;;;;;66.50;43.50;;;10.90;99.90;;;10.39;75.58;102228.31;4953466;28;20070;-64
2024/03/07 08:48:07;;;;;;;65.18;44.10;;;10.80;99.90;;;11.28;76.02;102310.97;4953727;29;20058;-61
2024/03/07 08:50:37;;;;;;;62.88;42.38;;;11.00;99.90;;;11.74;75.10;102308.19;4951917;29;20082;-62
2024/03/07 08:53:06;;;;;;;64.55;43.13;;;11.40;99.90;;;11.30;75.00;102311.91;4952658;28;20074;-61
2024/03/07 08:55:36;;;;;;;61.08;41.33;;;11.20;99.90;;;11.82;75.66;102308.28;4953116;28;20039;-61
2024/03/07 08:58:07;;;;;;;57.58;41.13;;;11.50;99.90;;;12.11;74.54;102307.78;4952717;28;20035;-61
2024/03/07 09:00:38;;;;;;;67.97;41.28;;;11.80;99.90;;;11.98;72.00;102310.28;4952999;28;20086;-63
2024/03/07 09:03:09;;;;;;;62.45;41.63;;;11.80;99.90;;;11.87;71.64;102301.25;4952761;28;20130;-61
2024/03/07 09:05:41;;;;;;;61.10;40.47;;;11.70;99.90;;;12.04;72.82;102299.75;4951397;29;20150;-61
2024/03/07 09:08:10;;;;;;;61.33;40.13;;;11.70;99.90;;;12.28;71.69;102311.53;4952922;28;20061;-61
2024/03/07 09:10:41;;;;;;;54.25;38.75;;;12.00;99.90;;;11.27;72.62;102298.59;4953005;28;20126;-61
2024/03/07 09:13:09;;;;;;;58.53;38.10;;;11.10;99.90;;;11.12;72.68;102298.34;4952825;28;20055;-61
2024/03/07 09:15:39;;;;;;;52.08;35.25;;;10.90;99.90;;;11.21;73.00;102299.38;4952611;28;20046;-63
2024/03/07 09:18:08;;;;;;;49.10;34.30;;;10.90;99.90;;;10.38;73.10;102297.91;4967485;28;20055;-62
2024/03/07 09:20:37;;;;;;;49.53;34.55;;;10.30;99.90;;;10.42;74.69;102282.97;4952743;28;20493;-63
2024/03/07 09:23:07;;;;;;;54.80;35.50;;;10.10;99.90;;;11.01;73.76;102292.91;4952636;28;20404;-63
2024/03/07 09:25:35;;;;;;;51.97;33.63;;;10.60;99.90;;;11.16;71.11;102290.50;4952774;28;20066;-64
2024/03/07 09:28:06;;;;;;;49.15;33.67;;;10.90;99.90;;;11.24;70.40;102294.16;4952600;28;20047;-61
2024/03/07 09:30:38;;;;;;;48.78;34.13;;;11.00;99.90;;;11.67;70.94;102290.41;4952532;28;20047;-62
2024/03/07 09:33:11;;;;;;;46.85;32.72;;;11.30;99.90;;;10.98;68.98;102286.63;4952448;28;20055;-62
2024/03/07 09:35:40;;;;;;;47.17;32.20;;;11.00;99.90;;;10.54;71.56;102299.09;4952413;28;20488;-62
2024/03/07 09:38:09;;;;;;;51.20;31.75;;;10.50;99.90;;;9.31;73.64;102279.69;4952362;28;20528;-61
2024/03/07 09:40:38;;;;;;;51.03;33.97;;;9.40;99.90;;;9.70;76.64;102277.97;4952152;28;20481;-61
2024/03/07 09:43:10;;;;;;;50.15;35.22;;;9.40;99.90;;;9.49;77.75;102269.56;4952227;28;20077;-61
2024/03/07 09:45:42;;;;;;;48.40;32.85;;;9.30;99.90;;;10.10;74.29;102270.91;4952213;28;20035;-61
2024/03/07 09:48:17;;;;;;;44.97;31.88;;;9.80;99.90;;;10.20;72.76;102278.16;4952244;28;20047;-61
2024/03/07 09:50:47;;;;;;;43.97;30.77;;;10.00;99.90;;;9.64;73.83;102277.81;4952187;28;20075;-61
2024/03/07 09:53:18;;;;;;;49.97;34.35;;;9.70;99.90;;;9.39;76.18;102267.56;4952163;28;20374;-61
2024/03/07 09:55:46;;;;;;;48.78;32.65;;;9.30;99.90;;;9.86;75.92;102277.44;4952319;28;20481;-63
2024/03/07 09:58:20;;;;;;;51.05;32.53;;;9.60;99.90;;;10.24;74.68;102262.38;4952004;28;20070;-63
2024/03/07 10:00:51;;;;;;;46.33;31.00;;;9.90;99.90;;;10.03;73.15;102257.53;4951983;28;20412;-61
2024/03/07 10:03:23;;;;;;;44.47;31.85;;;10.00;99.90;;;9.92;74.72;102271.38;4952293;28;20050;-61
2024/03/07 10:05:53;;;;;;;45.53;31.45;;;9.80;99.90;;;10.52;74.12;102255.84;4950779;29;20051;-62
2024/03/07 10:08:23;;;;;;;40.55;29.75;;;10.20;99.90;;;10.99;71.52;102260.22;4952024;28;20382;-61
2024/03/07 10:10:55;;;;;;;46.40;30.60;;;10.70;99.90;;;10.88;69.62;102265.31;4955890;28;20129;-61
2024/03/07 10:13:25;;;;;;;43.75;29.60;;;10.80;99.90;;;9.82;72.97;102269.41;4955889;28;20062;-62
2024/03/07 10:15:56;;;;;;;46.25;30.88;;;9.80;99.90;;;9.87;75.43;102270.41;4956047;28;20051;-62
2024/03/07 10:18:27;;;;;;;42.08;30.05;;;9.70;99.90;;;10.32;73.89;102250.19;4955583;28;20039;-62
2024/03/07 10:20:55;;;;;;;39.92;29.02;;;10.00;99.90;;;10.85;72.41;102243.19;4955433;28;20106;-61